CPX657 Details

Departure: Southwest Florida International Airport (KRSW)
Arrival: Miami International Airport (KMIA)
Route: CYY CYY9


Current Weather Information
KRSW 232153Z 07017KT 10SM SCT047 32/20 A3006 RMK AO2 SLP176 T03170200
KMIA 232153Z 06014G22KT 10SM SCT030 BKN037 29/21 A3007 RMK AO2 SLP181 T02890206